createdAt,value
2018-07-10T00:07:18.362Z,5.10
2018-07-10T00:12:21.808Z,9.10
2018-07-10T00:17:24.855Z,6.90
2018-07-10T00:22:28.030Z,6.93
2018-07-10T00:27:31.905Z,4.00
2018-07-10T00:32:35.038Z,6.87
2018-07-10T00:37:38.150Z,6.47
2018-07-10T00:42:41.277Z,5.80
2018-07-10T00:47:44.390Z,8.43
2018-07-10T00:52:47.555Z,5.57
2018-07-10T00:57:52.666Z,4.43
2018-07-10T01:02:55.989Z,6.57
2018-07-10T01:08:00.549Z,7.07
2018-07-10T01:13:03.669Z,4.77
2018-07-10T01:18:06.804Z,4.17
2018-07-10T01:23:09.928Z,5.73
2018-07-10T01:28:13.337Z,4.17
2018-07-10T01:33:16.490Z,4.20
2018-07-10T01:38:20.527Z,4.77
2018-07-10T01:43:23.658Z,9.63
2018-07-10T01:48:26.803Z,6.90
2018-07-10T01:53:29.918Z,7.67
2018-07-10T01:58:33.037Z,5.13
2018-07-10T02:03:36.203Z,7.00
2018-07-10T02:08:39.497Z,9.13
2018-07-10T02:13:42.654Z,6.47
2018-07-10T02:18:46.181Z,10.00
2018-07-10T02:23:49.305Z,7.77
2018-07-10T02:28:53.310Z,12.10
2018-07-10T02:33:56.622Z,5.40
2018-07-10T02:39:00.225Z,5.10
2018-07-10T02:44:05.450Z,6.10
2018-07-10T02:49:14.254Z,9.73
2018-07-10T02:54:17.405Z,4.10
2018-07-10T02:59:20.529Z,6.97
2018-07-10T03:04:23.662Z,9.33
2018-07-10T03:09:26.872Z,4.70
2018-07-10T03:14:30.012Z,8.40
2018-07-10T03:19:33.154Z,6.90
2018-07-10T03:24:36.370Z,7.23
2018-07-10T03:29:39.578Z,5.57
2018-07-10T03:34:42.713Z,5.57
2018-07-10T03:39:46.281Z,5.97
2018-07-10T03:44:49.976Z,5.97
2018-07-10T03:49:53.062Z,3.60
2018-07-10T03:54:57.969Z,5.60
2018-07-10T04:00:08.190Z,6.97
2018-07-10T04:05:11.389Z,6.23
2018-07-10T04:10:16.752Z,4.97
2018-07-10T04:15:20.017Z,4.87
2018-07-10T04:20:23.142Z,5.20
2018-07-10T04:25:30.698Z,4.23
2018-07-10T04:31:44.179Z,3.33
2018-07-10T04:36:48.007Z,3.87
2018-07-10T04:41:53.688Z,5.07
2018-07-10T04:46:58.027Z,3.20
2018-07-10T04:52:11.185Z,5.00
2018-07-10T04:57:15.783Z,4.07
2018-07-10T05:02:18.989Z,3.47
2018-07-10T05:07:22.178Z,3.87
2018-07-10T05:12:25.398Z,6.40
2018-07-10T05:17:28.533Z,3.30
2018-07-10T05:22:31.726Z,6.30
2018-07-10T05:27:34.926Z,2.70
2018-07-10T05:32:38.111Z,5.37
2018-07-10T05:37:41.426Z,2.37
2018-07-10T05:42:46.794Z,6.43
2018-07-10T05:47:59.125Z,5.40
2018-07-10T05:53:02.606Z,5.97
2018-07-10T05:58:05.753Z,8.53
2018-07-10T06:03:08.969Z,7.00
2018-07-10T06:08:13.385Z,7.60
2018-07-10T06:13:16.598Z,5.17
2018-07-10T06:18:20.818Z,5.13
2018-07-10T06:23:28.552Z,3.73
2018-07-10T06:28:31.682Z,5.83
2018-07-10T06:33:35.193Z,4.93
2018-07-10T06:38:43.089Z,8.33
2018-07-10T06:43:51.618Z,5.40
2018-07-10T06:48:56.874Z,6.87
2018-07-10T06:54:03.049Z,6.63
2018-07-10T06:59:06.229Z,4.57
2018-07-10T07:04:14.157Z,6.90
2018-07-10T07:09:17.617Z,7.13
2018-07-10T07:14:21.166Z,7.90
2018-07-10T07:19:24.366Z,5.00
2018-07-10T07:24:27.573Z,7.67
2018-07-10T07:29:30.777Z,6.23
2018-07-10T07:34:33.957Z,6.87
2018-07-10T07:39:37.142Z,6.07
2018-07-10T07:44:40.309Z,5.10
2018-07-10T07:49:43.466Z,5.17
2018-07-10T07:54:46.622Z,10.63
2018-07-10T07:59:49.833Z,5.00
2018-07-10T08:04:53.657Z,4.60
2018-07-10T08:09:57.776Z,7.00
2018-07-10T08:15:01.661Z,4.17
2018-07-10T08:20:05.730Z,5.40
2018-07-10T08:25:09.274Z,5.00
2018-07-10T08:30:12.679Z,4.27
2018-07-10T08:35:15.838Z,4.93
2018-07-10T08:40:18.990Z,9.23
2018-07-10T08:45:23.075Z,3.53
2018-07-10T08:50:26.226Z,5.77
2018-07-10T08:55:29.407Z,5.87
2018-07-10T09:00:32.574Z,8.37
2018-07-10T09:05:35.728Z,5.77
2018-07-10T09:10:38.890Z,6.27
2018-07-10T09:15:42.076Z,5.87
2018-07-10T09:20:47.953Z,7.73
2018-07-10T09:25:56.890Z,7.00
2018-07-10T09:31:00.846Z,5.50
2018-07-10T09:36:04.721Z,8.63
2018-07-10T09:41:08.386Z,12.30
2018-07-10T09:46:11.567Z,4.87
2018-07-10T09:51:14.712Z,8.83
2018-07-10T09:56:17.866Z,7.17
2018-07-10T10:01:26.502Z,10.87
2018-07-10T10:06:29.767Z,8.63
2018-07-10T10:11:32.906Z,9.50
2018-07-10T10:16:36.230Z,10.73
2018-07-10T10:21:39.895Z,7.07
2018-07-10T10:26:43.085Z,7.33
2018-07-10T10:31:46.343Z,8.40
2018-07-10T10:36:49.641Z,6.43
2018-07-10T10:41:52.881Z,4.23
2018-07-10T10:46:56.027Z,9.57
2018-07-10T10:51:59.586Z,11.83
2018-07-10T10:57:02.571Z,6.47
2018-07-10T11:02:05.765Z,5.53
2018-07-10T11:07:08.882Z,8.70
2018-07-10T11:12:12.094Z,6.80
2018-07-10T11:17:25.257Z,7.30
2018-07-10T11:22:28.393Z,11.07
2018-07-10T11:27:54.786Z,9.70
2018-07-10T11:32:57.928Z,5.23
2018-07-10T11:38:03.703Z,9.43
2018-07-10T11:43:09.266Z,7.07
2018-07-10T11:48:12.431Z,14.50
2018-07-10T11:53:15.594Z,7.70
2018-07-10T11:58:18.867Z,6.53
2018-07-10T12:03:22.099Z,9.77
2018-07-10T12:08:25.343Z,10.67
2018-07-10T12:13:28.511Z,12.03
2018-07-10T12:18:32.104Z,12.10
2018-07-10T12:23:35.386Z,13.33
2018-07-10T12:28:38.660Z,10.10
2018-07-10T12:33:42.057Z,14.03
2018-07-10T12:38:45.225Z,11.63
2018-07-10T12:43:48.501Z,18.63
2018-07-10T12:48:51.622Z,18.00
2018-07-10T12:53:54.782Z,18.33
2018-07-10T12:58:58.030Z,11.40
2018-07-10T13:04:01.216Z,16.77
2018-07-10T13:09:04.597Z,15.37
2018-07-10T13:14:07.838Z,17.40
2018-07-10T13:19:11.162Z,13.67
2018-07-10T13:24:14.387Z,19.77
2018-07-10T13:29:17.690Z,14.50
2018-07-10T13:34:20.881Z,19.17
2018-07-10T13:39:25.100Z,18.90
2018-07-10T13:44:28.251Z,19.40
2018-07-10T13:49:31.462Z,16.63
2018-07-10T13:54:34.674Z,15.40
2018-07-10T13:59:37.870Z,20.27
2018-07-10T14:04:41.043Z,16.57
2018-07-10T14:09:45.422Z,20.00
2018-07-10T14:14:48.658Z,17.10
2018-07-10T14:19:52.259Z,14.30
2018-07-10T14:24:55.667Z,15.17
2018-07-10T14:29:58.837Z,17.60
2018-07-10T14:35:01.970Z,17.13
2018-07-10T14:40:05.250Z,25.73
2018-07-10T14:45:09.156Z,25.17
2018-07-10T14:50:12.386Z,26.43
2018-07-10T14:55:15.603Z,25.37
2018-07-10T15:00:18.746Z,21.87
2018-07-10T15:05:21.899Z,21.13
2018-07-10T15:10:25.115Z,16.50
2018-07-10T15:15:28.312Z,19.87
2018-07-10T15:20:31.392Z,15.47
2018-07-10T15:25:34.623Z,19.80
2018-07-10T15:30:37.775Z,19.10
2018-07-10T15:35:40.926Z,34.80
2018-07-10T15:40:44.916Z,25.63
2018-07-10T15:45:48.050Z,27.93
2018-07-10T15:50:51.230Z,17.53
2018-07-10T15:55:54.535Z,11.77
2018-07-10T16:00:57.667Z,9.30
2018-07-10T16:06:01.887Z,14.53
2018-07-10T16:11:05.388Z,16.30
2018-07-10T16:16:10.374Z,15.80
2018-07-10T16:21:13.598Z,12.67
2018-07-10T16:26:20.965Z,13.27
2018-07-10T16:31:24.190Z,15.93
2018-07-10T16:36:27.246Z,14.33
2018-07-10T16:41:35.865Z,14.93
2018-07-10T16:46:40.206Z,18.17
2018-07-10T16:51:48.737Z,18.80
2018-07-10T16:56:51.871Z,18.83
2018-07-10T17:01:55.104Z,19.60
2018-07-10T17:06:58.230Z,16.47
2018-07-10T17:12:01.454Z,20.03
2018-07-10T17:17:08.990Z,21.53
2018-07-10T17:22:12.174Z,20.93
2018-07-10T17:27:15.718Z,17.73
2018-07-10T17:32:18.874Z,17.97
2018-07-10T17:37:22.084Z,16.77
2018-07-10T17:42:25.242Z,18.67
2018-07-10T17:47:28.390Z,20.67
2018-07-10T17:52:31.607Z,17.70
2018-07-10T17:57:54.987Z,18.20
2018-07-10T18:02:58.086Z,15.13
2018-07-10T18:08:01.242Z,19.90
2018-07-10T18:13:04.388Z,12.50
2018-07-10T18:18:07.505Z,13.03
2018-07-10T18:23:10.711Z,14.10
2018-07-10T18:28:13.827Z,15.87
2018-07-10T18:33:16.936Z,9.73
2018-07-10T18:38:20.219Z,8.27
2018-07-10T18:43:23.423Z,7.40
2018-07-10T18:48:27.240Z,5.60
2018-07-10T18:53:30.370Z,8.17
2018-07-10T18:58:47.107Z,9.93
2018-07-10T19:03:50.274Z,8.03
2018-07-10T19:08:53.448Z,5.63
2018-07-10T19:14:01.665Z,7.63
2018-07-10T19:19:04.890Z,9.03
2018-07-10T19:24:15.101Z,4.60
2018-07-10T19:29:22.942Z,5.67
2018-07-10T19:34:26.095Z,4.00
2018-07-10T19:39:29.300Z,4.57
2018-07-10T19:44:32.659Z,5.70
2018-07-10T19:49:36.574Z,4.40
2018-07-10T19:54:39.798Z,3.83
2018-07-10T19:59:42.962Z,2.80
2018-07-10T20:04:56.799Z,3.73
2018-07-10T20:11:05.222Z,5.13
2018-07-10T20:16:10.582Z,5.13
2018-07-10T20:21:20.838Z,3.13
2018-07-10T20:26:31.399Z,2.63
2018-07-10T20:31:40.622Z,3.20
2018-07-10T20:36:44.626Z,2.27
2018-07-10T20:41:48.561Z,2.67
2018-07-10T20:46:58.726Z,4.70
2018-07-10T20:52:05.637Z,4.17
2018-07-10T20:57:45.750Z,2.67
2018-07-10T21:03:06.103Z,3.07
2018-07-10T21:08:20.153Z,3.27
2018-07-10T21:13:58.406Z,2.63
2018-07-10T21:19:08.753Z,3.97
2018-07-10T21:24:22.189Z,4.10
2018-07-10T21:29:30.721Z,3.73
2018-07-10T21:34:47.799Z,3.20
2018-07-10T21:40:57.240Z,4.00
2018-07-10T21:47:03.505Z,6.90
2018-07-10T21:52:06.662Z,3.33
2018-07-10T21:57:14.846Z,5.00
2018-07-10T22:02:18.080Z,3.00
2018-07-10T22:07:21.480Z,3.23
2018-07-10T22:12:24.682Z,3.20
2018-07-10T22:17:28.366Z,2.23
2018-07-10T22:22:32.802Z,2.60
2018-07-10T22:27:38.584Z,2.77
2018-07-10T22:32:47.282Z,2.83
2018-07-10T22:37:50.573Z,3.40
2018-07-10T22:42:53.813Z,2.20
2018-07-10T22:47:57.025Z,2.93
2018-07-10T22:53:01.362Z,4.40
2018-07-10T22:58:06.449Z,2.97
2018-07-10T23:03:22.175Z,2.17
2018-07-10T23:08:31.705Z,3.23
2018-07-10T23:13:37.985Z,2.47
2018-07-10T23:18:42.121Z,2.47
2018-07-10T23:23:45.349Z,2.63
2018-07-10T23:28:51.503Z,2.67
2018-07-10T23:34:00.274Z,2.33
2018-07-10T23:39:07.650Z,2.67
2018-07-10T23:44:10.846Z,3.43
2018-07-10T23:49:16.677Z,2.50
2018-07-10T23:54:19.837Z,3.50
2018-07-10T23:59:23.004Z,4.50
